createdAt,value
2018-06-29T00:00:07.118Z,99.90
2018-06-29T00:02:36.007Z,99.90
2018-06-29T00:05:05.799Z,99.90
2018-06-29T00:07:34.575Z,99.90
2018-06-29T00:10:03.395Z,99.90
2018-06-29T00:12:32.224Z,99.90
2018-06-29T00:15:01.008Z,99.90
2018-06-29T00:17:29.844Z,99.90
2018-06-29T00:19:58.620Z,99.90
2018-06-29T00:22:27.411Z,99.90
2018-06-29T00:24:56.192Z,99.90
2018-06-29T00:27:25.084Z,99.90
2018-06-29T00:29:53.831Z,99.90
2018-06-29T00:32:22.610Z,99.90
2018-06-29T00:34:51.386Z,99.90
2018-06-29T00:37:20.143Z,99.90
2018-06-29T00:39:50.302Z,99.90
2018-06-29T00:42:19.107Z,99.90
2018-06-29T00:44:47.869Z,99.90
2018-06-29T00:47:16.608Z,99.90
2018-06-29T00:49:45.396Z,99.90
2018-06-29T00:52:14.252Z,99.90
2018-06-29T00:54:43.088Z,99.90
2018-06-29T00:57:11.763Z,99.90
2018-06-29T00:59:40.593Z,99.90
2018-06-29T01:02:09.544Z,99.90
2018-06-29T01:04:38.333Z,99.90
2018-06-29T01:07:07.113Z,99.90
2018-06-29T01:09:35.911Z,99.90
2018-06-29T01:12:04.651Z,99.90
2018-06-29T01:14:33.415Z,99.90
2018-06-29T01:17:02.204Z,99.90
2018-06-29T01:19:30.987Z,99.90
2018-06-29T01:21:59.763Z,99.90
2018-06-29T01:24:28.580Z,99.90
2018-06-29T01:26:57.384Z,99.90
2018-06-29T01:29:26.228Z,99.90
2018-06-29T01:31:54.980Z,99.90
2018-06-29T01:34:23.748Z,99.90
2018-06-29T01:36:53.670Z,99.90
2018-06-29T01:39:22.440Z,99.90
2018-06-29T01:41:51.443Z,99.90
2018-06-29T01:44:20.203Z,99.90
2018-06-29T01:46:49.046Z,99.90
2018-06-29T01:49:17.803Z,99.90
2018-06-29T01:51:46.966Z,99.90
2018-06-29T01:54:16.602Z,99.90
2018-06-29T01:56:45.380Z,99.90
2018-06-29T01:59:14.152Z,99.90
2018-06-29T02:01:42.929Z,99.90
2018-06-29T02:04:11.704Z,99.90
2018-06-29T02:06:40.523Z,99.90
2018-06-29T02:09:10.040Z,99.90
2018-06-29T02:11:38.807Z,99.90
2018-06-29T02:14:07.563Z,99.90
2018-06-29T02:16:36.342Z,99.90
2018-06-29T02:19:05.112Z,99.90
2018-06-29T02:21:33.869Z,99.90
2018-06-29T02:24:02.612Z,99.90
2018-06-29T02:26:31.388Z,99.90
2018-06-29T02:29:00.158Z,99.90
2018-06-29T02:31:28.966Z,99.90
2018-06-29T02:33:57.682Z,99.90
2018-06-29T02:36:26.529Z,99.90
2018-06-29T02:38:55.290Z,99.90
2018-06-29T02:41:24.064Z,99.90
2018-06-29T02:43:52.819Z,99.90
2018-06-29T02:46:21.612Z,99.90
2018-06-29T02:48:50.380Z,99.90
2018-06-29T02:51:19.148Z,99.90
2018-06-29T02:53:47.900Z,99.90
2018-06-29T02:56:16.680Z,99.90
2018-06-29T02:58:45.438Z,99.90
2018-06-29T03:01:14.287Z,99.90
2018-06-29T03:03:43.037Z,99.90
2018-06-29T03:06:11.884Z,99.90
2018-06-29T03:08:40.639Z,99.90
2018-06-29T03:11:09.402Z,99.90
2018-06-29T03:13:38.351Z,99.90
2018-06-29T03:16:07.097Z,99.90
2018-06-29T03:18:35.936Z,99.90
2018-06-29T03:21:04.839Z,99.90
2018-06-29T03:23:33.603Z,99.90
2018-06-29T03:28:30.872Z,99.90
2018-06-29T03:30:59.615Z,99.90
2018-06-29T03:33:28.383Z,99.90
2018-06-29T03:35:57.143Z,99.90
2018-06-29T03:38:25.908Z,99.90
2018-06-29T03:40:54.666Z,99.90
2018-06-29T03:43:23.451Z,99.90
2018-06-29T03:45:52.327Z,99.90
2018-06-29T03:48:21.141Z,99.90
2018-06-29T03:50:49.883Z,99.90
2018-06-29T03:53:18.661Z,99.90
2018-06-29T03:55:47.440Z,99.90
2018-06-29T03:58:16.250Z,99.90
2018-06-29T04:00:44.972Z,99.90
2018-06-29T04:03:13.739Z,99.90
2018-06-29T04:05:42.493Z,99.90
2018-06-29T04:08:11.268Z,99.90
2018-06-29T04:13:08.455Z,99.90
2018-06-29T04:15:37.250Z,99.90
2018-06-29T04:18:06.030Z,99.90
2018-06-29T04:20:34.778Z,99.90
2018-06-29T04:23:03.576Z,99.90
2018-06-29T04:25:32.336Z,99.90
2018-06-29T04:28:01.124Z,99.90
2018-06-29T04:30:29.875Z,99.90
2018-06-29T04:32:58.749Z,99.90
2018-06-29T04:35:27.491Z,99.90
2018-06-29T04:37:56.348Z,99.90
2018-06-29T04:40:25.104Z,99.90
2018-06-29T04:42:53.905Z,99.90
2018-06-29T04:45:22.651Z,99.90
2018-06-29T04:47:51.424Z,99.90
2018-06-29T04:50:20.199Z,99.90
2018-06-29T04:52:48.986Z,99.90
2018-06-29T04:55:17.767Z,99.90
2018-06-29T04:57:46.547Z,99.90
2018-06-29T05:00:15.390Z,99.90
2018-06-29T05:02:47.722Z,99.90
2018-06-29T05:05:18.032Z,99.90
2018-06-29T05:07:53.056Z,99.90
2018-06-29T05:10:22.279Z,99.90
2018-06-29T05:12:51.215Z,99.90
2018-06-29T05:15:19.972Z,99.90
2018-06-29T05:17:48.754Z,99.90
2018-06-29T05:20:17.510Z,99.90
2018-06-29T05:22:46.283Z,99.90
2018-06-29T05:25:15.036Z,99.90
2018-06-29T05:27:43.896Z,99.90
2018-06-29T05:30:12.866Z,99.90
2018-06-29T05:32:42.429Z,99.90
2018-06-29T05:35:11.513Z,99.90
2018-06-29T05:37:40.630Z,99.90
2018-06-29T05:40:09.379Z,99.90
2018-06-29T05:42:38.232Z,99.90
2018-06-29T05:45:06.996Z,99.90
2018-06-29T05:47:35.770Z,99.90
2018-06-29T05:50:05.065Z,99.90
2018-06-29T05:52:35.016Z,99.90
2018-06-29T05:55:05.460Z,99.90
2018-06-29T05:57:34.237Z,99.90
2018-06-29T06:00:02.983Z,99.90
2018-06-29T06:02:31.757Z,99.90
2018-06-29T06:05:00.534Z,99.90
2018-06-29T06:07:29.301Z,99.90
2018-06-29T06:09:58.119Z,99.90
2018-06-29T06:12:26.817Z,99.90
2018-06-29T06:14:55.703Z,99.90
2018-06-29T06:17:24.478Z,99.90
2018-06-29T06:20:03.749Z,99.90
2018-06-29T06:22:32.860Z,99.90
2018-06-29T06:25:01.653Z,99.90
2018-06-29T06:27:30.390Z,99.90
2018-06-29T06:29:59.157Z,99.90
2018-06-29T06:32:27.907Z,99.90
2018-06-29T06:34:56.676Z,99.90
2018-06-29T06:37:26.435Z,99.90
2018-06-29T06:39:55.261Z,99.90
2018-06-29T06:42:24.051Z,99.90
2018-06-29T06:44:52.811Z,99.90
2018-06-29T06:47:21.575Z,99.90
2018-06-29T06:49:50.404Z,99.90
2018-06-29T06:52:19.164Z,99.90
2018-06-29T06:54:47.939Z,99.90
2018-06-29T06:57:16.700Z,99.90
2018-06-29T06:59:45.468Z,99.90
2018-06-29T07:02:14.237Z,99.90
2018-06-29T07:04:43.064Z,99.90
2018-06-29T07:07:12.017Z,99.90
2018-06-29T07:09:40.784Z,99.90
2018-06-29T07:12:09.553Z,99.90
2018-06-29T07:14:38.350Z,99.90
2018-06-29T07:17:07.182Z,99.90
2018-06-29T07:19:35.962Z,99.90
2018-06-29T07:22:04.803Z,99.90
2018-06-29T07:24:33.567Z,99.90
2018-06-29T07:27:02.324Z,99.90
2018-06-29T07:29:31.121Z,99.90
2018-06-29T07:31:59.881Z,99.90
2018-06-29T07:34:28.640Z,99.90
2018-06-29T07:36:57.392Z,99.90
2018-06-29T07:39:26.173Z,99.90
2018-06-29T07:41:54.955Z,99.90
2018-06-29T07:44:23.732Z,99.90
2018-06-29T07:46:52.487Z,99.90
2018-06-29T07:49:21.273Z,99.90
2018-06-29T07:51:50.009Z,99.90
2018-06-29T07:54:18.779Z,99.90
2018-06-29T07:56:47.552Z,99.90
2018-06-29T07:59:16.294Z,99.90
2018-06-29T08:01:45.068Z,99.90
2018-06-29T08:04:13.836Z,99.90
2018-06-29T08:06:42.820Z,99.90
2018-06-29T08:09:12.072Z,99.90
2018-06-29T08:11:40.844Z,99.90
2018-06-29T08:14:09.603Z,99.90
2018-06-29T08:16:38.372Z,99.90
2018-06-29T08:19:07.126Z,99.90
2018-06-29T08:21:35.888Z,99.90
2018-06-29T08:24:04.666Z,99.90
2018-06-29T08:26:33.449Z,99.90
2018-06-29T08:29:02.233Z,99.90
2018-06-29T08:31:30.998Z,99.90
2018-06-29T08:33:59.752Z,99.90
2018-06-29T08:36:28.508Z,99.90
2018-06-29T08:38:57.286Z,99.90
2018-06-29T08:41:26.061Z,99.90
2018-06-29T08:43:54.800Z,99.90
2018-06-29T08:46:23.599Z,99.90
2018-06-29T08:48:52.403Z,99.90
2018-06-29T08:51:21.186Z,99.90
2018-06-29T08:53:49.924Z,99.90
2018-06-29T08:56:18.684Z,99.90
2018-06-29T08:58:47.492Z,99.90
2018-06-29T09:01:16.226Z,99.90
2018-06-29T09:03:45.008Z,99.90
2018-06-29T09:06:13.760Z,99.90
2018-06-29T09:08:42.523Z,99.90
2018-06-29T09:11:11.303Z,99.90
2018-06-29T09:13:40.065Z,99.90
2018-06-29T09:16:08.845Z,99.90
2018-06-29T09:18:37.586Z,99.90
2018-06-29T09:21:06.373Z,99.90
2018-06-29T09:23:35.143Z,99.90
2018-06-29T09:26:03.906Z,99.90
2018-06-29T09:28:32.644Z,99.90
2018-06-29T09:31:01.415Z,99.90
2018-06-29T09:33:30.161Z,99.90
2018-06-29T09:35:58.920Z,99.90
2018-06-29T09:38:27.686Z,99.90
2018-06-29T09:40:56.460Z,99.90
2018-06-29T09:43:25.211Z,99.90
2018-06-29T09:45:54.009Z,99.90
2018-06-29T09:48:22.846Z,99.90
2018-06-29T09:50:51.612Z,99.90
2018-06-29T09:53:20.362Z,99.90
2018-06-29T09:55:49.118Z,99.90
2018-06-29T09:58:17.888Z,99.90
2018-06-29T10:00:46.714Z,99.90
2018-06-29T10:03:15.575Z,99.90
2018-06-29T10:05:44.327Z,99.90
2018-06-29T10:08:13.093Z,99.90
2018-06-29T10:10:41.878Z,99.90
2018-06-29T10:13:10.632Z,99.90
2018-06-29T10:15:39.441Z,99.90
2018-06-29T10:18:08.235Z,99.90
2018-06-29T10:20:37.024Z,99.90
2018-06-29T10:25:34.395Z,99.90
2018-06-29T10:28:03.128Z,99.90
2018-06-29T10:30:31.848Z,99.90
2018-06-29T10:35:29.072Z,99.90
2018-06-29T10:37:58.354Z,99.90
2018-06-29T10:40:27.219Z,99.90
2018-06-29T10:42:55.989Z,99.90
2018-06-29T10:47:53.187Z,99.90
2018-06-29T10:50:21.948Z,99.90
2018-06-29T10:52:50.782Z,99.90
2018-06-29T10:55:19.477Z,99.90
2018-06-29T10:57:48.276Z,99.90
2018-06-29T11:00:17.278Z,99.90
2018-06-29T11:02:46.075Z,99.90
2018-06-29T11:05:14.845Z,99.90
2018-06-29T11:07:43.599Z,99.90
2018-06-29T11:10:12.362Z,99.90
2018-06-29T11:12:41.139Z,99.90
2018-06-29T11:15:10.196Z,99.90
2018-06-29T11:17:38.965Z,99.90
2018-06-29T11:20:07.798Z,99.90
2018-06-29T11:22:36.580Z,99.90
2018-06-29T11:25:05.344Z,99.80
2018-06-29T11:27:34.152Z,99.90
2018-06-29T11:30:02.920Z,99.90
2018-06-29T11:32:31.675Z,99.20
2018-06-29T11:35:00.463Z,99.30
2018-06-29T11:37:29.224Z,98.90
2018-06-29T11:39:57.976Z,98.90
2018-06-29T11:42:26.744Z,98.30
2018-06-29T11:44:55.481Z,98.30
2018-06-29T11:47:24.231Z,98.30
2018-06-29T11:49:53.063Z,99.40
2018-06-29T11:52:21.818Z,98.40
2018-06-29T11:54:50.581Z,96.60
2018-06-29T11:57:19.336Z,97.00
2018-06-29T11:59:48.108Z,97.30
2018-06-29T12:02:16.861Z,97.60
2018-06-29T12:04:45.652Z,97.80
2018-06-29T12:07:14.470Z,97.10
2018-06-29T12:09:43.188Z,95.80
2018-06-29T12:12:11.938Z,96.10
2018-06-29T12:14:40.700Z,95.60
2018-06-29T12:17:09.451Z,95.80
2018-06-29T12:19:38.396Z,95.80
2018-06-29T12:22:07.177Z,95.60
2018-06-29T12:24:35.963Z,95.70
2018-06-29T12:27:04.831Z,95.70
2018-06-29T12:29:33.587Z,95.90
2018-06-29T12:32:02.357Z,96.40
2018-06-29T12:34:31.150Z,95.40
2018-06-29T12:36:59.884Z,94.90
2018-06-29T12:39:28.659Z,95.00
2018-06-29T12:41:57.415Z,95.20
2018-06-29T12:44:26.181Z,95.40
2018-06-29T12:46:54.969Z,95.20
2018-06-29T12:49:23.748Z,95.60
2018-06-29T12:51:52.499Z,94.60
2018-06-29T12:54:21.255Z,94.70
2018-06-29T12:56:50.016Z,94.70
2018-06-29T12:59:18.767Z,93.50
2018-06-29T13:01:47.511Z,94.10
2018-06-29T13:04:16.264Z,92.60
2018-06-29T13:06:45.007Z,92.50
2018-06-29T13:09:13.789Z,93.00
2018-06-29T13:11:42.530Z,92.00
2018-06-29T13:14:11.307Z,91.80
2018-06-29T13:16:40.051Z,91.20
2018-06-29T13:19:08.824Z,90.60
2018-06-29T13:21:37.573Z,91.10
2018-06-29T13:24:06.340Z,89.90
2018-06-29T13:26:35.149Z,91.30
2018-06-29T13:29:03.928Z,90.70
2018-06-29T13:31:32.727Z,90.90
2018-06-29T13:34:01.501Z,91.20
2018-06-29T13:36:30.260Z,90.70
2018-06-29T13:38:59.018Z,91.50
2018-06-29T13:41:27.806Z,91.70
2018-06-29T13:46:25.043Z,91.90
2018-06-29T13:48:53.885Z,91.30
2018-06-29T13:51:22.602Z,90.50
2018-06-29T13:53:51.363Z,89.50
2018-06-29T13:56:20.106Z,90.40
2018-06-29T13:58:48.872Z,86.90
2018-06-29T14:01:17.659Z,87.80
2018-06-29T14:03:46.409Z,85.10
2018-06-29T14:06:15.163Z,84.60
2018-06-29T14:08:43.918Z,83.30
2018-06-29T14:11:12.667Z,84.10
2018-06-29T14:13:41.455Z,83.40
2018-06-29T14:16:10.220Z,84.20
2018-06-29T14:18:38.967Z,84.90
2018-06-29T14:21:07.762Z,83.70
2018-06-29T14:23:36.577Z,83.90
2018-06-29T14:26:05.522Z,83.70
2018-06-29T14:28:34.269Z,84.40
2018-06-29T14:31:03.072Z,84.10
2018-06-29T14:33:31.835Z,83.90
2018-06-29T14:36:00.575Z,84.70
2018-06-29T14:38:29.342Z,83.30
2018-06-29T14:40:58.116Z,82.90
2018-06-29T14:43:26.858Z,82.10
2018-06-29T14:45:55.613Z,82.70
2018-06-29T14:48:24.367Z,83.30
2018-06-29T14:50:53.274Z,84.40
2018-06-29T14:53:22.132Z,86.00
2018-06-29T14:55:50.933Z,86.20
2018-06-29T15:00:48.714Z,88.40
2018-06-29T15:03:18.101Z,89.80
2018-06-29T15:05:47.408Z,90.80
2018-06-29T15:08:16.775Z,90.30
2018-06-29T15:10:46.097Z,90.70
2018-06-29T15:13:15.283Z,90.90
2018-06-29T15:15:44.759Z,89.70
2018-06-29T15:18:13.986Z,89.40
2018-06-29T15:20:43.204Z,88.50
2018-06-29T15:23:12.115Z,86.80
2018-06-29T15:25:41.046Z,88.90
2018-06-29T15:28:10.445Z,89.00
2018-06-29T15:30:39.721Z,90.10
2018-06-29T15:33:08.801Z,90.00
2018-06-29T15:35:38.238Z,90.60
2018-06-29T15:38:07.668Z,92.10
2018-06-29T15:40:36.989Z,91.50
2018-06-29T15:43:08.742Z,91.40
2018-06-29T15:45:38.057Z,90.80
2018-06-29T15:48:07.125Z,90.50
2018-06-29T15:50:35.900Z,90.50
2018-06-29T15:53:04.652Z,90.00
2018-06-29T15:55:33.696Z,90.20
2018-06-29T15:58:02.530Z,88.80
2018-06-29T16:00:31.404Z,89.00
2018-06-29T16:03:00.144Z,88.10
2018-06-29T16:05:28.921Z,88.70
2018-06-29T16:07:57.751Z,88.00
2018-06-29T16:10:26.584Z,89.20
2018-06-29T16:12:55.402Z,87.60
2018-06-29T16:15:24.124Z,87.80
2018-06-29T16:17:52.919Z,88.60
2018-06-29T16:20:21.679Z,87.90
2018-06-29T16:22:50.426Z,88.10
2018-06-29T16:25:19.263Z,88.90
2018-06-29T16:27:48.025Z,88.60
2018-06-29T16:30:16.831Z,88.90
2018-06-29T16:32:45.615Z,87.80
2018-06-29T16:35:14.368Z,87.90
2018-06-29T16:37:45.524Z,86.80
2018-06-29T16:40:14.272Z,85.80
2018-06-29T16:42:43.061Z,87.80
2018-06-29T16:45:11.795Z,89.10
2018-06-29T16:47:40.672Z,88.30
2018-06-29T16:50:09.428Z,87.90
2018-06-29T16:52:38.192Z,88.30
2018-06-29T16:55:07.081Z,89.00
2018-06-29T16:57:35.856Z,90.10
2018-06-29T17:00:05.623Z,88.90
2018-06-29T17:02:34.400Z,89.20
2018-06-29T17:05:03.264Z,90.10
2018-06-29T17:07:32.044Z,89.40
2018-06-29T17:10:00.795Z,89.60
2018-06-29T17:12:29.568Z,90.00
2018-06-29T17:14:58.336Z,89.40
2018-06-29T17:17:27.200Z,89.40
2018-06-29T17:19:56.048Z,90.10
2018-06-29T17:22:24.792Z,90.30
2018-06-29T17:24:53.584Z,90.60
2018-06-29T17:27:22.355Z,90.30
2018-06-29T17:29:51.107Z,89.50
2018-06-29T17:32:19.872Z,90.40
2018-06-29T17:34:48.652Z,90.60
2018-06-29T17:37:17.428Z,90.70
2018-06-29T17:39:46.188Z,90.80
2018-06-29T17:42:14.991Z,91.00
2018-06-29T17:44:43.764Z,90.90
2018-06-29T17:47:12.678Z,91.10
2018-06-29T17:49:41.456Z,91.40
2018-06-29T17:52:10.254Z,91.50
2018-06-29T17:54:39.028Z,91.50
2018-06-29T17:57:07.835Z,91.40
2018-06-29T17:59:36.716Z,91.40
2018-06-29T18:02:05.504Z,91.70
2018-06-29T18:04:34.360Z,91.90
2018-06-29T18:07:03.218Z,92.10
2018-06-29T18:09:31.932Z,92.30
2018-06-29T18:12:00.699Z,92.60
2018-06-29T18:14:29.540Z,92.50
2018-06-29T18:16:58.316Z,92.80
2018-06-29T18:19:27.100Z,92.80
2018-06-29T18:21:55.938Z,92.90
2018-06-29T18:24:24.707Z,92.90
2018-06-29T18:26:53.499Z,93.10
2018-06-29T18:29:22.279Z,93.80
2018-06-29T18:31:51.164Z,93.80
2018-06-29T18:34:25.106Z,94.10
2018-06-29T18:36:53.880Z,94.60
2018-06-29T18:39:22.763Z,94.50
2018-06-29T18:41:51.528Z,95.10
2018-06-29T18:44:20.303Z,95.60
2018-06-29T18:46:49.270Z,96.10
2018-06-29T18:49:18.002Z,97.00
2018-06-29T18:51:46.741Z,97.50
2018-06-29T18:54:15.502Z,97.70
2018-06-29T18:56:44.306Z,98.40
2018-06-29T18:59:13.044Z,98.40
2018-06-29T19:04:10.756Z,99.40
2018-06-29T19:06:39.503Z,99.50
2018-06-29T19:11:38.345Z,99.90
2018-06-29T19:14:07.281Z,99.90
2018-06-29T19:16:36.481Z,99.90
2018-06-29T19:19:05.509Z,99.90
2018-06-29T19:21:34.277Z,99.90
2018-06-29T19:26:31.507Z,99.90
2018-06-29T19:29:00.359Z,99.90
2018-06-29T19:31:29.120Z,99.90
2018-06-29T19:33:57.887Z,99.90
2018-06-29T19:36:26.714Z,99.90
2018-06-29T19:38:55.923Z,99.90
2018-06-29T19:41:25.031Z,99.90
2018-06-29T19:43:54.157Z,99.90
2018-06-29T19:46:23.416Z,99.90
2018-06-29T19:48:52.292Z,99.90
2018-06-29T19:51:21.333Z,99.90
2018-06-29T19:53:50.120Z,99.90
2018-06-29T19:56:19.000Z,99.90
2018-06-29T19:58:48.456Z,99.90
2018-06-29T20:01:17.906Z,99.90
2018-06-29T20:03:46.774Z,99.90
2018-06-29T20:06:15.788Z,99.90
2018-06-29T20:08:44.544Z,99.90
2018-06-29T20:11:13.461Z,99.90
2018-06-29T20:13:42.688Z,99.90
2018-06-29T20:16:11.501Z,99.90
2018-06-29T20:18:40.259Z,99.90
2018-06-29T20:21:09.019Z,99.90
2018-06-29T20:23:37.808Z,99.90
2018-06-29T20:26:06.557Z,99.90
2018-06-29T20:33:32.316Z,99.90
2018-06-29T20:36:01.239Z,99.90
2018-06-29T20:38:30.101Z,99.90
2018-06-29T20:40:58.784Z,99.90
2018-06-29T20:43:28.239Z,99.90
2018-06-29T20:45:57.011Z,99.90
2018-06-29T20:48:25.825Z,99.90
2018-06-29T20:50:54.644Z,99.90
2018-06-29T20:53:23.431Z,99.90
2018-06-29T20:55:52.355Z,99.90
2018-06-29T20:58:21.242Z,99.90
2018-06-29T21:00:50.088Z,99.90
2018-06-29T21:03:19.024Z,99.90
2018-06-29T21:05:47.888Z,99.90
2018-06-29T21:08:16.755Z,99.90
2018-06-29T21:10:45.560Z,99.90
2018-06-29T21:13:14.339Z,99.90
2018-06-29T21:15:43.112Z,99.90
2018-06-29T21:18:11.896Z,99.90
2018-06-29T21:20:40.771Z,99.90
2018-06-29T21:23:09.615Z,99.90
2018-06-29T21:25:38.380Z,99.90
2018-06-29T21:28:07.206Z,99.90
2018-06-29T21:30:35.971Z,99.90
2018-06-29T21:33:04.775Z,99.90
2018-06-29T21:35:33.530Z,99.90
2018-06-29T21:38:02.322Z,99.90
2018-06-29T21:40:31.603Z,99.90
2018-06-29T21:43:00.380Z,99.90
2018-06-29T21:45:29.164Z,99.90
2018-06-29T21:47:57.943Z,99.90
2018-06-29T21:50:26.773Z,99.90
2018-06-29T21:52:55.534Z,99.90
2018-06-29T21:55:24.291Z,99.90
2018-06-29T21:57:53.063Z,99.90
2018-06-29T22:00:21.999Z,99.90
2018-06-29T22:02:50.769Z,99.90
2018-06-29T22:05:19.611Z,99.90
2018-06-29T22:07:48.398Z,99.90
2018-06-29T22:10:17.171Z,99.90
2018-06-29T22:12:46.039Z,99.90
2018-06-29T22:15:23.445Z,99.90
2018-06-29T22:17:52.740Z,99.90
2018-06-29T22:20:22.064Z,99.90
2018-06-29T22:22:50.881Z,99.90
2018-06-29T22:25:20.133Z,99.90
2018-06-29T22:27:49.234Z,99.90
2018-06-29T22:30:18.850Z,99.90
2018-06-29T22:32:48.029Z,99.90
2018-06-29T22:35:16.983Z,99.90
2018-06-29T22:37:46.311Z,99.90
2018-06-29T22:40:15.059Z,99.90
2018-06-29T22:42:43.835Z,99.90
2018-06-29T22:45:12.622Z,99.90
2018-06-29T22:50:09.844Z,99.90
2018-06-29T22:52:38.608Z,99.90
2018-06-29T22:55:07.504Z,99.90
2018-06-29T22:57:36.361Z,99.90
2018-06-29T23:00:05.419Z,99.90
2018-06-29T23:02:34.223Z,99.90
2018-06-29T23:05:03.802Z,99.90
2018-06-29T23:07:32.559Z,99.90
2018-06-29T23:10:01.501Z,99.90
2018-06-29T23:12:30.265Z,99.90
2018-06-29T23:14:59.020Z,99.90
2018-06-29T23:17:27.783Z,99.90
2018-06-29T23:19:56.536Z,99.90
2018-06-29T23:22:25.308Z,99.90
2018-06-29T23:24:54.047Z,99.90
2018-06-29T23:27:22.799Z,99.90
2018-06-29T23:29:51.560Z,99.90
2018-06-29T23:32:20.331Z,99.90
2018-06-29T23:34:49.080Z,99.90
2018-06-29T23:37:17.876Z,99.90
2018-06-29T23:39:46.687Z,99.90
2018-06-29T23:42:15.466Z,99.90
2018-06-29T23:44:44.264Z,99.90
2018-06-29T23:47:13.031Z,99.90
2018-06-29T23:49:41.865Z,99.90
2018-06-29T23:52:10.850Z,99.90
2018-06-29T23:54:39.601Z,99.90
2018-06-29T23:57:08.407Z,99.90
2018-06-29T23:59:37.162Z,99.90
